Time;durP1;ratioP1;P1;durP2;ratioP2;P2;SDS_P1;SDS_P2;PMS_P1;PMS_P2;Temp;Humidity;BMP_temperature;BMP_pressure;BME280_temperature;BME280_humidity;BME280_pressure;Samples;Min_cycle;Max_cycle;Signal;HPM_P1;HPM_P2
2021/04/25 00:01:22;;;;;;;12.20;6.87;;;;;;;4.11;52.23;97553.61;1701694;82;21143;-80
2021/04/25 00:03:50;;;;;;;13.68;6.12;;;;;;;4.12;52.22;97549.25;1725142;83;21174;-79
2021/04/25 00:06:18;;;;;;;13.05;6.25;;;;;;;4.12;52.30;97541.42;1725079;83;21177;-79
2021/04/25 00:08:45;;;;;;;10.10;5.87;;;;;;;4.11;52.28;97538.42;1724887;83;21596;-79
2021/04/25 00:11:12;;;;;;;12.73;7.20;;;;;;;4.11;52.68;97541.03;1719133;83;21154;-78
2021/04/25 00:13:43;;;;;;;10.25;6.40;;;;;;;4.09;52.90;97533.26;1694861;83;21195;-78
2021/04/25 00:16:16;;;;;;;12.88;7.05;;;;;;;4.09;52.65;97525.91;1694729;85;21128;-77
2021/04/25 00:18:44;;;;;;;16.15;7.15;;;;;;;4.10;52.67;97528.91;1704204;83;21152;-79
2021/04/25 00:21:13;;;;;;;17.25;7.92;;;;;;;4.06;53.01;97522.52;1725079;83;21131;-79
2021/04/25 00:23:40;;;;;;;11.73;6.97;;;;;;;4.06;52.72;97519.08;1725119;83;21566;-78
2021/04/25 00:26:07;;;;;;;13.32;7.35;;;;;;;4.06;52.68;97518.60;1724071;83;21122;-79
2021/04/25 00:28:37;;;;;;;14.30;7.20;;;;;;;4.04;53.02;97512.60;1725119;83;21147;-79
2021/04/25 00:31:06;;;;;;;14.30;6.95;;;;;;;4.02;52.79;97507.94;1725114;83;21162;-78
2021/04/25 00:33:34;;;;;;;17.12;7.53;;;;;;;4.01;52.74;97510.60;1724931;83;21637;-79
2021/04/25 00:36:02;;;;;;;12.28;6.80;;;;;;;4.00;52.92;97509.77;1720908;83;21154;-79
2021/04/25 00:38:29;;;;;;;14.05;5.45;;;;;;;4.00;52.79;97508.47;1725265;83;21294;-80
2021/04/25 00:40:58;;;;;;;14.60;7.25;;;;;;;4.00;53.24;97510.21;1724729;83;21136;-78
2021/04/25 00:43:25;;;;;;;20.23;7.20;;;;;;;4.01;53.18;97503.64;1724935;83;21140;-79
2021/04/25 00:45:52;;;;;;;16.93;8.33;;;;;;;4.03;53.06;97509.64;1726983;83;21538;-79
2021/04/25 00:48:21;;;;;;;16.67;8.45;;;;;;;4.06;53.31;97511.25;1725128;83;21184;-77
2021/04/25 00:50:49;;;;;;;14.47;7.65;;;;;;;4.09;53.21;97514.16;1725094;83;21120;-78
2021/04/25 00:53:20;;;;;;;17.20;8.75;;;;;;;4.11;53.09;97517.55;1706654;82;21168;-78
2021/04/25 00:55:48;;;;;;;16.40;8.93;;;;;;;4.14;53.21;97516.08;1704126;84;21485;-78
2021/04/25 00:58:17;;;;;;;14.60;8.60;;;;;;;4.17;53.17;97514.64;1703067;84;21148;-79
2021/04/25 01:00:45;;;;;;;12.75;7.75;;;;;;;4.21;53.44;97510.98;1704357;84;21585;-78
2021/04/25 01:03:12;;;;;;;11.93;6.85;;;;;;;4.24;53.50;97510.81;1704709;84;21117;-78
2021/04/25 01:05:39;;;;;;;12.00;7.12;;;;;;;4.26;53.51;97509.45;1704379;84;21659;-79
2021/04/25 01:08:06;;;;;;;15.43;6.65;;;;;;;4.28;53.37;97508.90;1704401;84;21153;-77
2021/04/25 01:10:34;;;;;;;11.33;6.62;;;;;;;4.29;53.22;97506.67;1688443;84;21143;-78
2021/04/25 01:13:03;;;;;;;15.15;6.37;;;;;;;4.30;53.37;97506.63;1689084;84;21200;-78
2021/04/25 01:15:30;;;;;;;13.48;6.85;;;;;;;4.32;53.44;97496.93;1688968;85;21160;-79
2021/04/25 01:17:58;;;;;;;15.70;6.90;;;;;;;4.34;53.47;97497.70;1689067;85;21162;-80
2021/04/25 01:20:26;;;;;;;14.83;8.05;;;;;;;4.37;53.26;97499.31;1689088;85;21183;-79
2021/04/25 01:22:53;;;;;;;12.33;7.55;;;;;;;4.39;53.48;97492.27;1689030;84;21170;-79
2021/04/25 01:25:23;;;;;;;15.75;8.88;;;;;;;4.42;53.76;97483.43;1689090;85;21170;-78
2021/04/25 01:27:51;;;;;;;17.37;9.00;;;;;;;4.46;53.34;97488.90;1688906;85;21603;-78
2021/04/25 01:30:28;;;;;;;18.77;9.83;;;;;;;4.49;53.31;97486.15;1688750;85;21175;-78
2021/04/25 01:32:57;;;;;;;20.48;10.82;;;;;;;4.52;53.27;97480.75;1688926;85;21163;-80
2021/04/25 01:35:27;;;;;;;18.87;11.25;;;;;;;4.54;53.26;97482.83;1688858;85;21321;-78
2021/04/25 01:37:57;;;;;;;19.17;10.43;;;;;;;4.57;53.20;97477.91;1688909;85;21632;-78
2021/04/25 01:40:27;;;;;;;19.10;10.78;;;;;;;4.58;53.04;97472.64;1688666;85;21636;-78
2021/04/25 01:42:56;;;;;;;15.88;9.38;;;;;;;4.63;53.16;97471.93;1688490;85;21154;-77
2021/04/25 01:45:23;;;;;;;12.93;8.23;;;;;;;4.65;53.00;97471.84;1689148;84;21300;-79
2021/04/25 01:47:57;;;;;;;13.03;7.40;;;;;;;4.67;53.01;97464.78;1688774;85;21147;-79
2021/04/25 01:50:27;;;;;;;15.23;6.53;;;;;;;4.69;53.01;97464.25;1688162;85;21142;-79
2021/04/25 01:52:56;;;;;;;10.82;5.58;;;;;;;4.67;52.96;97464.34;1706536;83;21178;-78
2021/04/25 01:55:27;;;;;;;11.63;5.47;;;;;;;4.68;52.86;97469.09;1721630;83;21585;-78
2021/04/25 01:57:54;;;;;;;9.80;5.40;;;;;;;4.66;53.16;97467.87;1721711;83;21132;-79
2021/04/25 02:00:39;;;;;;;9.23;4.90;;;;;;;4.69;52.92;97468.17;1721800;83;21184;-79
2021/04/25 02:03:08;;;;;;;14.73;5.30;;;;;;;4.68;53.12;97468.64;1721529;83;21168;-78
2021/04/25 02:05:38;;;;;;;10.48;5.70;;;;;;;4.66;52.98;97459.17;1721797;83;21184;-78
2021/04/25 02:08:08;;;;;;;11.05;5.33;;;;;;;4.65;53.29;97462.70;1721754;83;21147;-78
2021/04/25 02:10:36;;;;;;;10.80;5.12;;;;;;;4.63;53.08;97458.88;1722067;83;21309;-78
2021/04/25 02:13:05;;;;;;;7.33;4.53;;;;;;;4.61;53.06;97455.48;1721806;83;21642;-79
2021/04/25 02:15:33;;;;;;;7.67;5.28;;;;;;;4.61;53.31;97450.74;1721900;83;21159;-78
2021/04/25 02:18:01;;;;;;;9.98;5.30;;;;;;;4.59;53.03;97453.44;1721953;83;21132;-79
2021/04/25 02:20:31;;;;;;;7.67;4.70;;;;;;;4.55;53.26;97454.98;1721826;83;21139;-79
2021/04/25 02:22:59;;;;;;;9.45;4.83;;;;;;;4.53;53.33;97461.12;1722037;83;21564;-78
2021/04/25 02:25:27;;;;;;;7.97;4.70;;;;;;;4.51;53.33;97458.17;1722177;83;21128;-79
2021/04/25 02:27:56;;;;;;;9.15;4.35;;;;;;;4.48;53.39;97451.34;1722016;83;21557;-79
2021/04/25 02:30:30;;;;;;;7.37;4.67;;;;;;;4.43;53.52;97455.11;1722043;83;21146;-79
2021/04/25 02:32:59;;;;;;;12.98;5.08;;;;;;;4.40;53.60;97451.36;1722003;83;21155;-79
2021/04/25 02:35:29;;;;;;;10.58;5.30;;;;;;;4.34;53.77;97449.90;1721777;83;21146;-77
2021/04/25 02:37:59;;;;;;;7.03;5.08;;;;;;;4.30;53.87;97450.52;1721931;83;21100;-79
2021/04/25 02:40:30;;;;;;;9.60;5.78;;;;;;;4.25;54.14;97443.35;1721765;83;21188;-78
2021/04/25 02:42:59;;;;;;;9.65;5.20;;;;;;;4.22;54.15;97444.83;1721760;83;21155;-79
2021/04/25 02:45:28;;;;;;;8.73;5.12;;;;;;;4.16;54.32;97433.37;1721937;83;21108;-78
2021/04/25 02:48:00;;;;;;;8.75;4.85;;;;;;;4.11;54.38;97442.72;1722064;83;21100;-78
2021/04/25 02:50:33;;;;;;;8.85;5.03;;;;;;;4.05;54.44;97443.86;1722177;83;21147;-79
2021/04/25 02:53:00;;;;;;;8.80;5.40;;;;;;;4.01;54.50;97442.78;1721687;83;21653;-78
2021/04/25 02:55:27;;;;;;;10.68;5.67;;;;;;;3.96;54.50;97447.39;1721366;83;21266;-79
2021/04/25 02:57:57;;;;;;;8.68;4.55;;;;;;;3.92;54.80;97446.69;1721497;83;21159;-78
2021/04/25 03:00:28;;;;;;;9.35;4.55;;;;;;;3.89;55.01;97439.00;1721544;83;21261;-79
2021/04/25 03:02:57;;;;;;;9.75;5.25;;;;;;;3.86;54.99;97437.39;1721540;83;21147;-80
2021/04/25 03:05:26;;;;;;;14.05;5.20;;;;;;;3.84;54.99;97432.70;1721526;83;21309;-79
2021/04/25 03:07:54;;;;;;;7.05;4.17;;;;;;;3.80;54.97;97435.09;1721662;83;21286;-78
2021/04/25 03:10:24;;;;;;;10.75;4.83;;;;;;;3.81;54.86;97439.83;1721468;83;21733;-79
2021/04/25 03:12:52;;;;;;;11.97;5.10;;;;;;;3.83;55.09;97438.00;1721018;83;21158;-78
2021/04/25 03:15:21;;;;;;;10.55;5.55;;;;;;;3.81;55.04;97427.63;1720732;83;21174;-79
2021/04/25 03:17:51;;;;;;;8.40;4.55;;;;;;;3.83;55.00;97436.70;1720993;83;21321;-79
2021/04/25 03:20:22;;;;;;;7.40;4.45;;;;;;;3.84;55.08;97434.01;1720751;83;21322;-79
2021/04/25 03:22:51;;;;;;;9.40;4.65;;;;;;;3.84;55.12;97434.01;1720666;83;21577;-79
2021/04/25 03:25:18;;;;;;;10.23;4.42;;;;;;;3.85;55.02;97437.00;1720824;83;21305;-78
2021/04/25 03:27:46;;;;;;;6.92;3.98;;;;;;;3.86;55.11;97428.27;1721503;83;21290;-79
2021/04/25 03:30:17;;;;;;;8.35;3.98;;;;;;;3.88;54.85;97431.66;1721467;83;21255;-79
2021/04/25 03:32:45;;;;;;;8.90;4.20;;;;;;;3.90;55.01;97423.74;1721606;83;21155;-78
2021/04/25 03:35:16;;;;;;;10.95;4.60;;;;;;;3.91;55.15;97420.22;1721735;83;21656;-78
2021/04/25 03:37:44;;;;;;;8.70;4.53;;;;;;;3.91;55.00;97421.52;1721271;83;21159;-78
2021/04/25 03:40:16;;;;;;;8.85;4.12;;;;;;;3.94;54.94;97421.83;1721559;83;21156;-78
2021/04/25 03:42:43;;;;;;;6.47;4.17;;;;;;;3.96;55.05;97430.43;1720911;83;21605;-79
2021/04/25 03:45:15;;;;;;;7.25;4.65;;;;;;;3.98;55.02;97424.69;1721439;83;21151;-78
2021/04/25 03:47:49;;;;;;;13.93;4.55;;;;;;;4.01;54.82;97427.99;1721294;83;21597;-79
2021/04/25 03:50:21;;;;;;;6.55;4.60;;;;;;;4.04;55.32;97430.42;1721594;83;21265;-78
2021/04/25 03:52:49;;;;;;;8.93;5.20;;;;;;;4.07;54.98;97425.55;1719018;83;21143;-78
2021/04/25 03:55:20;;;;;;;9.45;5.00;;;;;;;4.10;55.26;97427.98;1712184;84;21108;-78
2021/04/25 03:57:49;;;;;;;7.75;5.05;;;;;;;4.14;55.32;97424.77;1712010;83;21147;-79
2021/04/25 04:00:19;;;;;;;11.90;5.12;;;;;;;4.16;55.51;97429.45;1711902;84;21119;-79
2021/04/25 04:02:46;;;;;;;11.60;4.90;;;;;;;4.20;55.49;97427.09;1711843;84;21150;-78
2021/04/25 04:05:14;;;;;;;10.58;4.80;;;;;;;4.23;55.25;97419.09;1711632;84;21169;-79
2021/04/25 04:07:41;;;;;;;7.08;5.12;;;;;;;4.26;55.28;97420.73;1711858;84;21180;-78
2021/04/25 04:10:10;;;;;;;10.72;4.70;;;;;;;4.30;55.34;97417.03;1712119;83;21152;-78
2021/04/25 04:12:38;;;;;;;13.80;5.10;;;;;;;4.34;55.09;97425.10;1712020;84;21164;-79
2021/04/25 04:15:07;;;;;;;6.97;4.53;;;;;;;4.41;55.24;97417.81;1712258;83;21144;-79
2021/04/25 04:17:36;;;;;;;9.03;5.20;;;;;;;4.49;55.18;97416.97;1712030;84;21160;-78
2021/04/25 04:20:05;;;;;;;11.03;5.83;;;;;;;4.57;55.17;97421.78;1711939;84;21602;-79
2021/04/25 04:22:33;;;;;;;8.38;4.95;;;;;;;4.65;54.95;97419.62;1712254;84;21151;-78
2021/04/25 04:25:03;;;;;;;11.90;5.10;;;;;;;4.75;54.92;97420.01;1692654;84;21168;-79
2021/04/25 04:27:31;;;;;;;9.63;5.40;;;;;;;4.84;54.65;97418.23;1712797;83;21174;-83
2021/04/25 04:29:58;;;;;;;8.48;5.75;;;;;;;5.00;54.72;97423.02;1714232;84;21115;-85
2021/04/25 04:32:25;;;;;;;10.50;4.92;;;;;;;5.31;54.63;97422.71;1714036;83;21255;-84
2021/04/25 04:34:55;;;;;;;8.13;4.67;;;;;;;5.54;54.22;97425.83;1714147;84;21112;-81
2021/04/25 04:37:23;;;;;;;9.68;4.72;;;;;;;5.80;53.94;97424.85;1714067;83;21129;-82
2021/04/25 04:39:50;;;;;;;9.73;4.97;;;;;;;6.18;53.67;97417.95;1714171;84;21168;-80
2021/04/25 04:42:18;;;;;;;14.47;5.65;;;;;;;6.64;52.89;97416.20;1714152;83;21152;-82
2021/04/25 04:44:45;;;;;;;9.08;4.62;;;;;;;7.17;52.66;97412.59;1714125;84;21100;-78
2021/04/25 04:47:13;;;;;;;8.15;4.65;;;;;;;8.01;50.66;97404.28;1714197;84;21128;-82
2021/04/25 04:49:40;;;;;;;6.22;4.45;;;;;;;8.01;50.66;97404.28;1714235;84;21171;-82
2021/04/25 04:52:10;;;;;;;8.15;4.62;;;;;;;8.50;50.41;97409.87;1714260;83;21637;-80
2021/04/25 04:54:38;;;;;;;12.10;4.87;;;;;;;9.03;49.66;97413.76;1714338;83;21239;-79
2021/04/25 04:57:06;;;;;;;9.50;4.55;;;;;;;9.47;49.42;97415.55;1713893;84;21155;-79
2021/04/25 04:59:33;;;;;;;9.18;4.53;;;;;;;9.80;48.51;97410.98;1713736;84;21160;-82
2021/04/25 05:02:03;;;;;;;10.08;4.37;;;;;;;10.20;47.62;97410.36;1711546;84;21183;-77
2021/04/25 05:04:30;;;;;;;7.37;4.22;;;;;;;10.50;46.64;97408.58;1711497;83;21160;-77
2021/04/25 05:06:58;;;;;;;5.47;3.75;;;;;;;10.99;45.39;97409.77;1710990;84;21604;-79
2021/04/25 05:09:25;;;;;;;8.25;4.60;;;;;;;11.19;45.31;97407.72;1711023;83;21184;-80
2021/04/25 05:11:59;;;;;;;6.90;4.20;;;;;;;11.11;45.21;97399.56;1711124;84;21627;-79
2021/04/25 05:14:26;;;;;;;10.82;5.05;;;;;;;11.18;44.08;97398.61;1710834;83;21144;-79
2021/04/25 05:16:54;;;;;;;9.35;4.70;;;;;;;11.56;44.54;97400.03;1710567;83;21167;-82
2021/04/25 05:19:21;;;;;;;7.60;4.12;;;;;;;12.08;43.08;97395.48;1710419;84;21172;-79
2021/04/25 05:21:50;;;;;;;7.75;3.95;;;;;;;12.66;41.87;97397.77;1710367;83;21578;-79
2021/04/25 05:24:18;;;;;;;7.37;4.03;;;;;;;13.35;39.56;97398.95;1710343;84;21602;-80
2021/04/25 05:26:46;;;;;;;9.63;4.00;;;;;;;13.92;35.76;97394.98;1710778;83;21172;-81
2021/04/25 05:29:13;;;;;;;9.70;4.35;;;;;;;14.47;37.82;97399.27;1710338;84;21577;-79
2021/04/25 05:31:41;;;;;;;9.28;4.92;;;;;;;15.04;37.59;97393.67;1710316;84;21160;-80
2021/04/25 05:34:08;;;;;;;5.40;3.95;;;;;;;15.57;36.91;97391.70;1710636;83;21144;-80
2021/04/25 05:36:36;;;;;;;5.50;3.60;;;;;;;15.96;35.96;97395.98;1710238;83;21164;-81
2021/04/25 05:39:06;;;;;;;12.60;3.80;;;;;;;16.41;35.54;97390.27;1710317;83;21139;-81
2021/04/25 05:41:33;;;;;;;5.95;3.87;;;;;;;16.85;34.52;97391.60;1710297;84;21184;-80
2021/04/25 05:44:00;;;;;;;9.40;4.37;;;;;;;17.24;34.27;97386.87;1710254;84;21593;-79
2021/04/25 05:46:28;;;;;;;7.55;3.95;;;;;;;17.58;33.46;97385.55;1710310;83;21147;-80
2021/04/25 05:48:57;;;;;;;9.35;4.28;;;;;;;17.96;32.30;97383.84;1710354;83;21144;-79
2021/04/25 05:51:24;;;;;;;9.73;3.95;;;;;;;18.31;30.89;97383.73;1710308;83;21132;-78
2021/04/25 05:53:52;;;;;;;5.78;3.40;;;;;;;18.68;31.04;97384.60;1708059;82;21191;-79
2021/04/25 05:56:21;;;;;;;8.03;4.03;;;;;;;19.12;30.12;97380.70;1705608;83;21156;-81
2021/04/25 05:58:49;;;;;;;7.30;3.37;;;;;;;19.40;30.82;97371.45;1705533;84;21151;-79
2021/04/25 06:01:17;;;;;;;9.38;4.25;;;;;;;19.22;29.17;97367.17;1705636;84;21165;-82
2021/04/25 06:03:44;;;;;;;10.28;4.03;;;;;;;18.83;28.99;97375.90;1705996;83;21140;-82
2021/04/25 06:06:11;;;;;;;12.20;3.77;;;;;;;18.65;29.66;97368.91;1705696;83;21155;-80
2021/04/25 06:08:40;;;;;;;6.40;3.58;;;;;;;18.58;30.00;97375.92;1705900;83;21594;-84
2021/04/25 06:11:07;;;;;;;6.67;4.33;;;;;;;18.48;28.59;97376.08;1705813;83;21163;-83
2021/04/25 06:13:35;;;;;;;6.15;3.60;;;;;;;18.31;29.19;97377.07;1705757;84;21594;-80
2021/04/25 06:16:02;;;;;;;6.95;4.22;;;;;;;18.12;28.97;97373.72;1706032;83;21144;-81
2021/04/25 06:18:30;;;;;;;9.95;3.52;;;;;;;17.98;29.15;97371.19;1706167;83;21180;-79
2021/04/25 06:20:57;;;;;;;7.75;3.87;;;;;;;18.32;29.26;97368.07;1705691;83;21120;-82
2021/04/25 06:23:25;;;;;;;7.37;3.70;;;;;;;18.83;29.03;97368.73;1705691;83;21586;-80
2021/04/25 06:25:53;;;;;;;6.78;3.72;;;;;;;19.24;29.12;97361.16;1706109;83;21121;-80
2021/04/25 06:28:20;;;;;;;7.60;4.12;;;;;;;19.50;28.52;97363.55;1705622;83;21617;-80
2021/04/25 06:30:47;;;;;;;9.28;4.30;;;;;;;19.47;28.04;97359.06;1705685;83;21658;-81
2021/04/25 06:33:15;;;;;;;9.13;4.20;;;;;;;19.59;27.22;97361.69;1705724;83;21101;-83
2021/04/25 06:35:42;;;;;;;10.50;3.80;;;;;;;19.64;27.06;97357.16;1706029;84;21152;-80
2021/04/25 06:38:09;;;;;;;7.17;4.10;;;;;;;19.73;27.33;97362.80;1705801;84;21602;-83
2021/04/25 06:40:38;;;;;;;9.48;4.67;;;;;;;19.87;27.07;97356.38;1705679;83;21148;-84
2021/04/25 06:43:05;;;;;;;6.08;3.92;;;;;;;20.06;26.73;97353.77;1705654;84;21187;-83
2021/04/25 06:45:35;;;;;;;10.08;4.53;;;;;;;19.94;26.10;97356.03;1705818;83;21581;-80
2021/04/25 06:48:03;;;;;;;8.23;5.08;;;;;;;20.05;26.40;97357.45;1705881;84;21171;-80
2021/04/25 06:50:31;;;;;;;6.47;3.37;;;;;;;20.00;25.94;97349.96;1705728;83;21191;-80
2021/04/25 06:52:58;;;;;;;6.30;4.42;;;;;;;19.85;25.87;97355.72;1705632;84;21151;-79
2021/04/25 06:55:26;;;;;;;11.20;4.50;;;;;;;19.06;25.87;97356.54;1709332;83;21184;-79
2021/04/25 06:57:59;;;;;;;8.95;4.10;;;;;;;18.68;26.46;97353.05;1705543;83;21164;-79
2021/04/25 07:00:28;;;;;;;7.85;4.50;;;;;;;19.06;26.67;97353.34;1705552;84;21168;-80
2021/04/25 07:02:59;;;;;;;9.73;4.17;;;;;;;18.91;26.30;97355.85;1705762;83;21183;-80
2021/04/25 07:05:27;;;;;;;7.95;4.90;;;;;;;19.02;26.10;97354.20;1705844;83;21164;-78
2021/04/25 07:07:56;;;;;;;6.95;3.92;;;;;;;18.58;25.99;97351.39;1705730;83;21144;-80
2021/04/25 07:10:25;;;;;;;12.43;5.60;;;;;;;18.34;25.86;97356.22;1705501;84;21152;-80
2021/04/25 07:12:52;;;;;;;8.48;5.53;;;;;;;17.51;26.32;97351.21;1705769;83;21198;-80
2021/04/25 07:15:20;;;;;;;10.65;6.08;;;;;;;17.63;27.27;97345.91;1705605;84;21156;-80
2021/04/25 07:17:48;;;;;;;13.08;6.58;;;;;;;17.63;27.20;97348.56;1705674;84;21226;-80
2021/04/25 07:20:16;;;;;;;12.00;5.60;;;;;;;17.33;27.10;97346.81;1705746;84;21149;-85
2021/04/25 07:22:43;;;;;;;9.53;4.67;;;;;;;17.29;27.62;97349.95;1705612;84;21172;-82
2021/04/25 07:25:11;;;;;;;8.80;5.67;;;;;;;17.31;27.08;97342.14;1705612;84;21183;-79
2021/04/25 07:27:41;;;;;;;9.35;3.80;;;;;;;17.00;27.52;97337.83;1705800;83;21144;-80
2021/04/25 07:30:11;;;;;;;11.20;4.50;;;;;;;16.91;27.27;97346.73;1705554;84;21159;-81
2021/04/25 07:32:39;;;;;;;10.78;5.45;;;;;;;16.50;27.64;97340.13;1705408;83;21171;-81
2021/04/25 07:35:08;;;;;;;9.35;5.00;;;;;;;16.17;28.17;97341.69;1705403;84;21152;-84
2021/04/25 07:37:36;;;;;;;11.12;3.65;;;;;;;15.93;28.17;97330.67;1705649;84;21188;-84
2021/04/25 07:40:06;;;;;;;7.10;4.67;;;;;;;16.02;28.54;97333.41;1705406;83;21590;-83
2021/04/25 07:42:34;;;;;;;8.93;4.75;;;;;;;16.00;28.78;97336.22;1705462;83;21133;-85
2021/04/25 07:45:04;;;;;;;9.10;5.78;;;;;;;15.83;29.13;97333.03;1705805;84;21205;-80
2021/04/25 07:47:31;;;;;;;9.20;4.40;;;;;;;15.82;29.16;97328.22;1705829;83;21163;-80
2021/04/25 07:49:58;;;;;;;7.78;5.37;;;;;;;16.12;29.09;97332.02;1705496;84;21160;-85
2021/04/25 07:52:26;;;;;;;6.65;3.80;;;;;;;16.29;29.21;97321.85;1705485;84;21149;-81
2021/04/25 07:54:53;;;;;;;8.05;5.10;;;;;;;16.48;28.97;97326.65;1708841;83;21190;-79
2021/04/25 07:57:21;;;;;;;7.15;3.85;;;;;;;16.39;29.34;97313.77;1710383;83;21625;-79
2021/04/25 07:59:52;;;;;;;8.65;4.95;;;;;;;16.43;29.22;97319.61;1690851;84;21140;-79
2021/04/25 08:02:23;;;;;;;9.93;5.85;;;;;;;16.32;29.51;97315.38;1710448;84;21625;-80
2021/04/25 08:04:51;;;;;;;8.45;4.97;;;;;;;16.59;29.71;97313.58;1710437;83;21581;-79
2021/04/25 08:07:18;;;;;;;11.83;5.05;;;;;;;16.96;29.20;97316.49;1710501;83;21180;-78
2021/04/25 08:09:49;;;;;;;9.35;4.58;;;;;;;16.96;28.96;97315.16;1710468;84;21573;-76
2021/04/25 08:12:18;;;;;;;6.25;4.60;;;;;;;16.60;28.95;97308.59;1709836;84;21124;-80
2021/04/25 08:14:46;;;;;;;8.98;5.30;;;;;;;16.45;29.53;97306.52;1710397;84;21112;-76
2021/04/25 08:17:14;;;;;;;12.20;4.90;;;;;;;16.69;29.66;97305.84;1710501;83;21151;-83
2021/04/25 08:19:41;;;;;;;11.15;4.83;;;;;;;16.99;29.46;97313.52;1710201;83;21149;-80
2021/04/25 08:22:09;;;;;;;10.43;5.05;;;;;;;16.59;28.61;97296.28;1710400;84;21132;-78
2021/04/25 08:24:36;;;;;;;7.95;4.40;;;;;;;16.26;29.12;97296.06;1710311;83;21624;-83
2021/04/25 08:27:04;;;;;;;12.10;5.05;;;;;;;16.20;29.22;97297.51;1710334;83;21216;-79
2021/04/25 08:29:32;;;;;;;11.90;5.35;;;;;;;15.93;29.84;97297.44;1710824;84;21318;-79
2021/04/25 08:32:00;;;;;;;4.12;2.80;;;;;;;16.16;30.42;97294.80;1710629;83;21480;-80
2021/04/25 08:34:27;;;;;;;8.83;4.97;;;;;;;16.55;29.53;97300.61;1710397;83;21609;-79
2021/04/25 08:36:56;;;;;;;9.53;5.05;;;;;;;16.40;29.27;97290.17;1710405;84;21144;-80
2021/04/25 08:39:24;;;;;;;9.95;4.10;;;;;;;16.48;29.34;97290.73;1710505;84;21164;-82
2021/04/25 08:41:54;;;;;;;9.33;4.37;;;;;;;16.50;28.96;97286.09;1710291;83;21614;-81
2021/04/25 08:44:26;;;;;;;9.60;4.72;;;;;;;16.30;28.91;97286.77;1710539;84;21144;-81
2021/04/25 08:46:54;;;;;;;4.10;3.02;;;;;;;16.35;29.03;97281.83;1710336;84;21169;-80
2021/04/25 08:49:28;;;;;;;10.65;4.30;;;;;;;16.49;28.06;97280.44;1708854;84;21128;-78
2021/04/25 08:51:55;;;;;;;13.68;5.47;;;;;;;16.04;28.52;97272.47;1710479;83;21132;-79
2021/04/25 08:54:26;;;;;;;7.67;3.45;;;;;;;15.92;28.98;97263.87;1710199;83;21168;-78
2021/04/25 08:56:55;;;;;;;8.38;4.17;;;;;;;16.24;28.89;97259.81;1710453;83;21151;-78
2021/04/25 08:59:23;;;;;;;7.78;4.40;;;;;;;16.49;28.92;97257.31;1710469;83;21609;-78
2021/04/25 09:01:50;;;;;;;8.83;4.15;;;;;;;16.77;28.90;97250.98;1710174;83;21157;-78
2021/04/25 09:04:18;;;;;;;9.13;4.30;;;;;;;17.05;28.48;97246.30;1710363;83;21140;-75
2021/04/25 09:07:05;;;;;;;7.50;3.10;;;;;;;17.29;28.82;97248.22;1710339;83;21148;-78
2021/04/25 09:09:52;;;;;;;5.83;3.75;;;;;;;17.55;28.05;97237.95;1714037;83;21171;-78
2021/04/25 09:12:41;;;;;;;4.28;3.22;;;;;;;17.65;28.09;97241.81;1710423;84;21136;-78
2021/04/25 09:15:18;;;;;;;6.12;3.83;;;;;;;17.83;27.33;97242.16;1710340;83;21140;-79
2021/04/25 09:17:53;;;;;;;3.10;2.10;;;;;;;17.66;27.67;97231.48;1710281;84;21132;-79
2021/04/25 09:20:46;;;;;;;6.65;3.17;;;;;;;17.51;26.06;97236.63;1710562;83;21141;-79
2021/04/25 09:23:27;;;;;;;7.78;3.10;;;;;;;17.37;26.96;97227.92;1710402;83;21558;-79
2021/04/25 09:26:17;;;;;;;6.72;3.17;;;;;;;17.33;27.27;97223.42;1710137;84;21167;-78
2021/04/25 09:54:08;;;;;;;7.37;3.92;;;;;;;17.03;26.58;97195.55;1741830;82;22850;-80
2021/04/25 10:10:11;;;;;;;5.60;3.02;;;;;;;15.75;28.72;97175.66;1824184;77;22674;-78
2021/04/25 10:12:47;;;;;;;7.03;3.95;;;;;;;15.57;29.09;97171.71;1814117;78;21180;-78
2021/04/25 10:15:16;;;;;;;8.23;3.90;;;;;;;15.59;29.39;97161.27;1795827;80;21126;-78
2021/04/25 10:17:51;;;;;;;7.62;3.37;;;;;;;15.63;29.30;97159.13;1795203;80;21550;-77
2021/04/25 10:20:21;;;;;;;5.95;3.05;;;;;;;15.74;29.36;97164.69;1795304;80;21131;-78
2021/04/25 10:22:51;;;;;;;8.13;3.40;;;;;;;15.58;29.08;97151.63;1794913;80;21541;-80
2021/04/25 10:25:33;;;;;;;6.95;3.42;;;;;;;15.39;28.45;97156.63;1795315;80;21599;-78
2021/04/25 10:28:12;;;;;;;5.95;3.05;;;;;;;15.24;28.63;97148.83;1795245;80;21139;-77
2021/04/25 10:30:41;;;;;;;5.47;3.45;;;;;;;15.19;29.01;97141.81;1795245;80;21131;-78
2021/04/25 10:33:09;;;;;;;4.75;3.12;;;;;;;15.22;28.77;97139.69;1795721;80;21143;-78
2021/04/25 10:35:36;;;;;;;6.10;3.22;;;;;;;15.18;28.82;97136.98;1783228;80;21135;-78
2021/04/25 10:38:06;;;;;;;4.45;2.72;;;;;;;15.25;28.78;97134.09;1776862;80;21553;-78
2021/04/25 10:40:39;;;;;;;4.67;2.67;;;;;;;15.45;28.81;97136.59;1778304;80;21127;-78
2021/04/25 10:43:10;;;;;;;6.00;3.40;;;;;;;15.73;29.00;97136.48;1748627;80;21588;-78
2021/04/25 10:46:01;;;;;;;7.85;2.90;;;;;;;16.11;28.94;97129.09;1793797;80;21565;-78
2021/04/25 10:48:32;;;;;;;6.83;2.80;;;;;;;16.44;28.68;97124.42;1774821;80;21140;-79
2021/04/25 10:51:13;;;;;;;7.55;2.30;;;;;;;16.80;28.28;97127.73;1773775;80;21589;-78
2021/04/25 10:53:46;;;;;;;4.83;2.52;;;;;;;17.15;28.02;97123.69;1764185;81;21146;-79
2021/04/25 10:56:21;;;;;;;3.77;2.30;;;;;;;17.40;26.44;97120.52;1764230;81;21281;-81
2021/04/25 10:59:09;;;;;;;4.20;2.02;;;;;;;17.42;24.44;97125.70;1770946;80;21111;-79
2021/04/25 11:01:45;;;;;;;6.15;2.45;;;;;;;17.54;26.09;97122.20;1782021;80;21155;-81
2021/04/25 11:04:52;;;;;;;4.20;2.15;;;;;;;17.78;25.95;97114.18;1762953;80;21132;-79
2021/04/25 11:07:37;;;;;;;6.85;2.30;;;;;;;18.08;26.17;97113.68;1788270;80;21100;-79
2021/04/25 11:10:06;;;;;;;6.08;2.05;;;;;;;18.47;25.69;97116.05;1765183;80;21140;-79
2021/04/25 11:12:45;;;;;;;7.62;2.52;;;;;;;18.47;24.10;97118.20;1763477;80;21195;-79
2021/04/25 11:15:49;;;;;;;4.15;2.10;;;;;;;17.97;23.97;97106.85;1793007;80;21104;-78
2021/04/25 11:18:45;;;;;;;7.25;2.20;;;;;;;17.81;24.43;97103.70;1792422;79;21412;-78
2021/04/25 11:21:41;;;;;;;;;;;;;;;17.86;24.49;97111.20;1792346;80;21138;-77
2021/04/25 11:24:10;;;;;;;5.03;2.17;;;;;;;18.02;23.94;97101.86;1791099;80;20228;-78
2021/04/25 11:26:45;;;;;;;5.17;2.37;;;;;;;17.89;23.26;97102.84;1792219;79;21557;-78
2021/04/25 11:29:36;;;;;;;4.20;1.35;;;;;;;17.95;23.91;97096.84;1791960;80;21119;-79
2021/04/25 11:32:04;;;;;;;3.85;2.35;;;;;;;18.04;22.99;97090.53;1792032;80;21122;-79
2021/04/25 11:34:41;;;;;;;5.42;2.20;;;;;;;17.56;22.31;97085.05;1792217;79;21108;-79
2021/04/25 11:37:26;;;;;;;6.58;1.98;;;;;;;17.29;23.32;97088.91;1792320;80;21123;-79
2021/04/25 11:40:06;;;;;;;3.67;2.02;;;;;;;17.06;23.64;97084.22;1763765;80;21191;-79
2021/04/25 11:42:45;;;;;;;4.85;2.00;;;;;;;16.91;23.96;97077.34;1792240;80;21151;-79
2021/04/25 11:45:21;;;;;;;6.85;2.72;;;;;;;17.01;24.55;97075.91;1792042;80;21530;-79
2021/04/25 11:47:53;;;;;;;4.87;2.70;;;;;;;17.12;24.77;97070.23;1792392;80;21127;-79
2021/04/25 11:50:31;;;;;;;3.45;1.92;;;;;;;17.15;24.62;97068.58;1791997;80;21112;-79
2021/04/25 11:52:59;;;;;;;6.35;2.60;;;;;;;17.17;24.56;97069.25;1792288;79;21131;-79
2021/04/25 11:55:28;;;;;;;3.77;2.30;;;;;;;16.97;24.77;97065.23;1792325;79;21554;-78
2021/04/25 11:57:56;;;;;;;5.08;2.90;;;;;;;16.98;24.55;97069.05;1792129;80;21135;-79
2021/04/25 12:00:30;;;;;;;4.75;2.60;;;;;;;16.88;25.05;97063.52;1791959;80;21127;-80
2021/04/25 12:03:01;;;;;;;9.85;2.55;;;;;;;16.90;24.46;97062.88;1792077;80;21615;-78
2021/04/25 12:05:39;;;;;;;4.28;2.25;;;;;;;16.99;25.11;97061.91;1792398;79;21127;-79
2021/04/25 12:08:10;;;;;;;8.85;2.75;;;;;;;17.10;24.73;97070.92;1792473;80;21741;-81
2021/04/25 12:10:43;;;;;;;3.75;2.60;;;;;;;17.03;24.81;97055.25;1792942;79;21151;-79
2021/04/25 12:13:23;;;;;;;4.83;2.47;;;;;;;17.12;25.23;97059.58;1793164;80;21310;-79
2021/04/25 12:16:00;;;;;;;4.67;2.33;;;;;;;17.15;24.97;97055.27;1792882;80;21616;-80
2021/04/25 12:18:38;;;;;;;5.75;2.70;;;;;;;17.11;24.14;97057.94;1792974;80;21147;-79
2021/04/25 12:21:08;;;;;;;5.17;2.10;;;;;;;16.98;24.54;97049.59;1792550;80;21561;-80
2021/04/25 12:23:40;;;;;;;7.53;2.35;;;;;;;16.95;24.78;97041.93;1792967;80;21167;-79
2021/04/25 12:26:10;;;;;;;4.60;1.77;;;;;;;16.99;24.96;97044.61;1792331;80;21146;-80
2021/04/25 12:28:45;;;;;;;5.37;2.58;;;;;;;17.05;24.09;97049.77;1792869;80;21172;-78